Vb Alboran — EARA — position and weather

sailwx.info

Track history (hours):
 
Tides and Currents Weather Stations Pressure Air Temp Water Temp Dewpoint Dewpoint Depression Visibility Wind Speed Wind Dir Waves Ship Positions

Vb Alboran

Last reported at 2016-Jul-30 22:33 UTC. Time now 2016-Jul-30 22:37 UTC.
Position N 28°08' W 015°25'.

Length 28 m; draft 6 m.

Type: Tug. MMSI: 224550000.

Date/timePositionNaut miles runAvg speedWind from/ knotsBaromVisibWave heightAir tempDewpointWater temp
2016-Jul-30 22:33N 28°08' W 015°25'0 0.0
2016-Jul-30 21:33N 28°08' W 015°25'0 0.0
2016-Jul-30 20:33N 28°08' W 015°25'0 0.0
2016-Jul-30 19:33N 28°08' W 015°25'0 0.0
2016-Jul-30 18:33N 28°08' W 015°25'1 0.9
2016-Jul-30 17:33N 28°08' W 015°25'1 0.9
2016-Jul-30 16:33N 28°08' W 015°25'0 0.2
2016-Jul-30 15:33N 28°08' W 015°25'0 0.0
2016-Jul-30 14:33N 28°08' W 015°25'0 0.0
2016-Jul-30 13:33N 28°08' W 015°25'0 0.0
2016-Jul-30 12:33N 28°08' W 015°25'0 0.2
2016-Jul-30 11:33N 28°08' W 015°25'0 0.2
2016-Jul-30 10:33N 28°08' W 015°25'0 0.0
2016-Jul-30 09:33N 28°08' W 015°25'0 0.0
2016-Jul-30 08:33N 28°08' W 015°25'0 0.2
2016-Jul-30 07:33N 28°08' W 015°25'1 0.8
2016-Jul-30 06:33N 28°08' W 015°25'1 0.8
2016-Jul-30 05:33N 28°08' W 015°25'1 0.8
2016-Jul-30 04:33N 28°08' W 015°25'0 0.0
2016-Jul-30 03:33N 28°08' W 015°25'0 0.0
2016-Jul-30 02:33N 28°08' W 015°25'1 0.6
2016-Jul-30 01:33N 28°07' W 015°24'1 0.8
2016-Jul-30 00:34N 28°07' W 015°25'9 8.7
2016-Jul-29 23:33N 27°59' W 015°20'7 6.8
2016-Jul-29 22:33N 27°52' W 015°21'2 1.3
2016-Jul-29 21:15N 27°51' W 015°23'7 9.7
2016-Jul-29 20:33N 27°57' W 015°20'9 9.5
2016-Jul-29 19:33N 28°06' W 015°24'3 2.6
2016-Jul-29 18:33N 28°08' W 015°25'0 0.0
2016-Jul-29 17:33N 28°08' W 015°25'0 0.0
2016-Jul-29 16:33N 28°08' W 015°25'1 1.0
2016-Jul-29 15:33N 28°08' W 015°25'0 0.0
2016-Jul-29 14:33N 28°08' W 015°25'0 0.0
2016-Jul-29 13:34N 28°08' W 015°25'0 0.3
2016-Jul-29 12:33N 28°08' W 015°25'0 0.5
2016-Jul-29 11:33N 28°08' W 015°25'0 0.1
2016-Jul-29 10:33N 28°08' W 015°25'0 0.0
2016-Jul-29 09:33N 28°08' W 015°25'0 0.2
2016-Jul-29 08:33N 28°08' W 015°25'1 0.6
2016-Jul-29 07:33N 28°08' W 015°25'0 0.0
2016-Jul-29 06:33N 28°08' W 015°25'1 0.7
2016-Jul-29 05:33N 28°08' W 015°25'0 0.1
2016-Jul-29 04:33N 28°08' W 015°25'0 0.0
2016-Jul-29 03:33N 28°08' W 015°25'0 0.0
2016-Jul-29 02:33N 28°08' W 015°25'0 0.0
2016-Jul-29 01:33N 28°08' W 015°25'0 0.0
2016-Jul-29 00:33N 28°08' W 015°25'0 0.0
2016-Jul-28 23:33N 28°08' W 015°25'0 0.0
2016-Jul-28 22:33N 28°08' W 015°25'1 0.8
2016-Jul-28 21:33N 28°07' W 015°24'1 0.8
2016-Jul-28 20:33N 28°08' W 015°25'1 0.8
2016-Jul-28 19:34N 28°08' W 015°25'1 0.5
2016-Jul-28 18:34N 28°09' W 015°26'1 1.2
2016-Jul-28 17:33N 28°08' W 015°25'1 0.8
2016-Jul-28 16:34N 28°08' W 015°25'0 0.2
2016-Jul-28 15:33N 28°08' W 015°25'0 0.0
2016-Jul-28 14:33N 28°08' W 015°25'1 0.6
2016-Jul-28 13:33N 28°08' W 015°25'1 1.0
2016-Jul-28 12:33N 28°07' W 015°25'0 0.5
2016-Jul-28 11:34N 28°08' W 015°25'0 0.1
2016-Jul-28 10:33N 28°08' W 015°25'1 0.7
2016-Jul-28 09:33N 28°08' W 015°25'0 0.0
2016-Jul-28 08:33N 28°08' W 015°25'0 0.0
2016-Jul-28 07:33N 28°08' W 015°25'0 0.0
2016-Jul-28 06:33N 28°08' W 015°25'0 0.0
2016-Jul-28 05:33N 28°08' W 015°25'0 0.0
2016-Jul-28 04:33N 28°08' W 015°25'0 0.0
2016-Jul-28 03:33N 28°08' W 015°25'0 0.0
2016-Jul-28 02:33N 28°08' W 015°25'0 0.0
2016-Jul-28 01:33N 28°08' W 015°25'0 0.0
2016-Jul-28 00:33N 28°08' W 015°25'1 0.6
2016-Jul-27 23:33N 28°08' W 015°25'1 0.6
2016-Jul-27 22:33N 28°08' W 015°25'0 0.0
2016-Jul-27 21:33N 28°08' W 015°25'0 0.0
2016-Jul-27 20:33N 28°08' W 015°25'1 1.1
2016-Jul-27 19:34N 28°08' W 015°25'1 1.1
2016-Jul-27 18:33N 28°09' W 015°24'0 0.0
2016-Jul-27 17:33N 28°09' W 015°24'0 0.0
2016-Jul-27 16:34N 28°09' W 015°24'1 1.2
2016-Jul-27 15:34N 28°08' W 015°25'0 0.5
2016-Jul-27 14:33N 28°08' W 015°25'1 1.0
2016-Jul-27 13:33N 28°09' W 015°25'0 0.0
2016-Jul-27 12:33N 28°09' W 015°25'0 0.0
2016-Jul-27 11:33N 28°09' W 015°25'0 0.0
2016-Jul-27 10:33N 28°09' W 015°25'0 0.0
2016-Jul-27 09:33N 28°09' W 015°25'0 0.0
2016-Jul-27 08:33N 28°09' W 015°25'0 0.0
2016-Jul-27 07:33N 28°09' W 015°25'0 0.0
2016-Jul-26 18:23N 28°09' W 015°25'0 0.0
2016-Jul-26 17:33N 28°09' W 015°25'0 0.0
2016-Jul-26 16:33N 28°09' W 015°25'0 0.0
2016-Jul-26 15:33N 28°09' W 015°25'0 0.0
2016-Jul-26 14:33N 28°09' W 015°25'0 0.0
2016-Jul-26 13:33N 28°09' W 015°25'  
Track history (hours):
 
Tides and Currents Weather Stations Pressure Air Temp Water Temp Dewpoint Dewpoint Depression Visibility Wind Speed Wind Dir Waves Ship Positions

Vb Alboran

Last reported at 2016-Jul-30 22:33 UTC. Time now 2016-Jul-30 22:37 UTC.
Position N 28°08' W 015°25'.

Length 28 m; draft 6 m.

Type: Tug. MMSI: 224550000.

Date/timePositionNaut miles runAvg speedWind from/ knotsBaromVisibWave heightAir tempDewpointWater temp
2016-Jul-30 22:33N 28°08' W 015°25'0 0.0
2016-Jul-30 21:33N 28°08' W 015°25'0 0.0
2016-Jul-30 20:33N 28°08' W 015°25'0 0.0
2016-Jul-30 19:33N 28°08' W 015°25'0 0.0
2016-Jul-30 18:33N 28°08' W 015°25'1 0.9
2016-Jul-30 17:33N 28°08' W 015°25'1 0.9
2016-Jul-30 16:33N 28°08' W 015°25'0 0.2
2016-Jul-30 15:33N 28°08' W 015°25'0 0.0
2016-Jul-30 14:33N 28°08' W 015°25'0 0.0
2016-Jul-30 13:33N 28°08' W 015°25'0 0.0
2016-Jul-30 12:33N 28°08' W 015°25'0 0.2
2016-Jul-30 11:33N 28°08' W 015°25'0 0.2
2016-Jul-30 10:33N 28°08' W 015°25'0 0.0
2016-Jul-30 09:33N 28°08' W 015°25'0 0.0
2016-Jul-30 08:33N 28°08' W 015°25'0 0.2
2016-Jul-30 07:33N 28°08' W 015°25'1 0.8
2016-Jul-30 06:33N 28°08' W 015°25'1 0.8
2016-Jul-30 05:33N 28°08' W 015°25'1 0.8
2016-Jul-30 04:33N 28°08' W 015°25'0 0.0
2016-Jul-30 03:33N 28°08' W 015°25'0 0.0
2016-Jul-30 02:33N 28°08' W 015°25'1 0.6
2016-Jul-30 01:33N 28°07' W 015°24'1 0.8
2016-Jul-30 00:34N 28°07' W 015°25'9 8.7
2016-Jul-29 23:33N 27°59' W 015°20'7 6.8
2016-Jul-29 22:33N 27°52' W 015°21'2 1.3
2016-Jul-29 21:15N 27°51' W 015°23'7 9.7
2016-Jul-29 20:33N 27°57' W 015°20'9 9.5
2016-Jul-29 19:33N 28°06' W 015°24'3 2.6
2016-Jul-29 18:33N 28°08' W 015°25'0 0.0
2016-Jul-29 17:33N 28°08' W 015°25'0 0.0
2016-Jul-29 16:33N 28°08' W 015°25'1 1.0
2016-Jul-29 15:33N 28°08' W 015°25'0 0.0
2016-Jul-29 14:33N 28°08' W 015°25'0 0.0
2016-Jul-29 13:34N 28°08' W 015°25'0 0.3
2016-Jul-29 12:33N 28°08' W 015°25'0 0.5
2016-Jul-29 11:33N 28°08' W 015°25'0 0.1
2016-Jul-29 10:33N 28°08' W 015°25'0 0.0
2016-Jul-29 09:33N 28°08' W 015°25'0 0.2
2016-Jul-29 08:33N 28°08' W 015°25'1 0.6
2016-Jul-29 07:33N 28°08' W 015°25'0 0.0
2016-Jul-29 06:33N 28°08' W 015°25'1 0.7
2016-Jul-29 05:33N 28°08' W 015°25'0 0.1
2016-Jul-29 04:33N 28°08' W 015°25'0 0.0
2016-Jul-29 03:33N 28°08' W 015°25'0 0.0
2016-Jul-29 02:33N 28°08' W 015°25'0 0.0
2016-Jul-29 01:33N 28°08' W 015°25'0 0.0
2016-Jul-29 00:33N 28°08' W 015°25'0 0.0
2016-Jul-28 23:33N 28°08' W 015°25'0 0.0
2016-Jul-28 22:33N 28°08' W 015°25'1 0.8
2016-Jul-28 21:33N 28°07' W 015°24'1 0.8
2016-Jul-28 20:33N 28°08' W 015°25'1 0.8
2016-Jul-28 19:34N 28°08' W 015°25'1 0.5
2016-Jul-28 18:34N 28°09' W 015°26'1 1.2
2016-Jul-28 17:33N 28°08' W 015°25'1 0.8
2016-Jul-28 16:34N 28°08' W 015°25'0 0.2
2016-Jul-28 15:33N 28°08' W 015°25'0 0.0
2016-Jul-28 14:33N 28°08' W 015°25'1 0.6
2016-Jul-28 13:33N 28°08' W 015°25'1 1.0
2016-Jul-28 12:33N 28°07' W 015°25'0 0.5
2016-Jul-28 11:34N 28°08' W 015°25'0 0.1
2016-Jul-28 10:33N 28°08' W 015°25'1 0.7
2016-Jul-28 09:33N 28°08' W 015°25'0 0.0
2016-Jul-28 08:33N 28°08' W 015°25'0 0.0
2016-Jul-28 07:33N 28°08' W 015°25'0 0.0
2016-Jul-28 06:33N 28°08' W 015°25'0 0.0
2016-Jul-28 05:33N 28°08' W 015°25'0 0.0
2016-Jul-28 04:33N 28°08' W 015°25'0 0.0
2016-Jul-28 03:33N 28°08' W 015°25'0 0.0
2016-Jul-28 02:33N 28°08' W 015°25'0 0.0
2016-Jul-28 01:33N 28°08' W 015°25'0 0.0
2016-Jul-28 00:33N 28°08' W 015°25'1 0.6
2016-Jul-27 23:33N 28°08' W 015°25'1 0.6
2016-Jul-27 22:33N 28°08' W 015°25'0 0.0
2016-Jul-27 21:33N 28°08' W 015°25'0 0.0
2016-Jul-27 20:33N 28°08' W 015°25'1 1.1
2016-Jul-27 19:34N 28°08' W 015°25'1 1.1
2016-Jul-27 18:33N 28°09' W 015°24'0 0.0
2016-Jul-27 17:33N 28°09' W 015°24'0 0.0
2016-Jul-27 16:34N 28°09' W 015°24'1 1.2
2016-Jul-27 15:34N 28°08' W 015°25'0 0.5
2016-Jul-27 14:33N 28°08' W 015°25'1 1.0
2016-Jul-27 13:33N 28°09' W 015°25'0 0.0
2016-Jul-27 12:33N 28°09' W 015°25'0 0.0
2016-Jul-27 11:33N 28°09' W 015°25'0 0.0
2016-Jul-27 10:33N 28°09' W 015°25'0 0.0
2016-Jul-27 09:33N 28°09' W 015°25'0 0.0
2016-Jul-27 08:33N 28°09' W 015°25'0 0.0
2016-Jul-27 07:33N 28°09' W 015°25'0 0.0
2016-Jul-26 18:23N 28°09' W 015°25'0 0.0
2016-Jul-26 17:33N 28°09' W 015°25'0 0.0
2016-Jul-26 16:33N 28°09' W 015°25'0 0.0
2016-Jul-26 15:33N 28°09' W 015°25'0 0.0
2016-Jul-26 14:33N 28°09' W 015°25'0 0.0
2016-Jul-26 13:33N 28°09' W 015°25'  

Dump ship's entire track history